This is the latest recevied weather packets stored in our database for station/object KC8YYF. If no packets are shown the sender has not sent any weather packets the latest 10 day(s).
| Time | Temp. | Humidity | Pressure | Rain* | Wind** | Luminosity | Snow |
|---|---|---|---|---|---|---|---|
| 1777223607 | 11.11° C | 84% | 1020.7 hPa | 0 mm | - | 119 W/m² | - |
| 1777223303 | 10.56° C | 84% | 1020.6 hPa | 0 mm | - | 89 W/m² | - |
| 1777223001 | 11.11° C | 84% | 1020.8 hPa | 0 mm | - | 71 W/m² | - |
| 1777222698 | 10.56° C | 85% | 1020.9 hPa | 0 mm | - | 70 W/m² | - |
| 1777222395 | 10.56° C | 86% | 1020.9 hPa | 0 mm | - | 69 W/m² | - |
| 1777222093 | 10.56° C | 86% | 1020.9 hPa | 0 mm | - | 62 W/m² | - |
| 1777221789 | 10.56° C | 86% | 1021 hPa | 0 mm | - | 59 W/m² | - |
| 1777221486 | 10° C | 88% | 1021 hPa | 0 mm | - | 53 W/m² | - |
| 1777221183 | 10° C | 87% | 1021 hPa | 0 mm | - | 53 W/m² | - |
| 1777220879 | 10.56° C | 87% | 1020.8 hPa | 0 mm | - | 54 W/m² | - |
| 1777220575 | 10° C | 87% | 1021.2 hPa | 0 mm | - | 49 W/m² | - |
| 1777220270 | 10° C | 87% | 1021.1 hPa | 0 mm | - | 56 W/m² | - |
| 1777219966 | 10° C | 87% | 1020.8 hPa | 0 mm | - | 70 W/m² | - |
| 1777219663 | 10° C | 88% | 1020.7 hPa | 0 mm | - | 73 W/m² | - |
| 1777219360 | 10° C | 89% | 1020.5 hPa | 0 mm | - | 61 W/m² | - |
| 1777219056 | 9.44° C | 88% | 1020.7 hPa | 0 mm | - | 57 W/m² | - |
| 1777218752 | 9.44° C | 89% | 1020.7 hPa | 0 mm | - | 59 W/m² | - |
| 1777218447 | 9.44° C | 89% | 1020.7 hPa | 0 mm | - | 61 W/m² | - |
| 1777205891 | 7.78° C | 94% | 1019.5 hPa | 0 mm | - | 10 W/m² | - |
| 1777205587 | 7.78° C | 94% | 1019.5 hPa | 0 mm | - | 10 W/m² | - |
| 1777205284 | 7.78° C | 94% | 1019.5 hPa | 0 mm | - | 10 W/m² | - |
| 1777204979 | 7.78° C | 94% | 1019.6 hPa | 0 mm | - | 5 W/m² | - |
| 1777204675 | 7.78° C | 94% | 1019.5 hPa | 0 mm | - | 4 W/m² | - |
| 1777204370 | 7.78° C | 94% | 1019.3 hPa | 0 mm | - | 5 W/m² | - |
| 1777204068 | 7.78° C | 94% | 1019.4 hPa | 0 mm | - | 5 W/m² | - |
* Rain latest hour (hover to see other rain measurements)
** Current wind speed in m/s (hover to see current wind gust speed)